Copacabana, Argentina
Current Conditions -  °F | °C
As of 4:00 PM on Sunday 23 Nov 2014 (Local Time) from SANT Reporting Station
Few Clouds Few Clouds  
Wind Chill: 93°   Ceiling: Unl
Heat Index: 93°   Visibility: 6mi
Dew Point: 61°   Wind: 32mph
Humidity: 34%   Direction: 20°NNE
Pressure: 29.68"   Gusts: 35mph
Location:  28.2°S, 67.48°W
Report Text: SANT 231900Z 02028G30KT 9999 FEW040 FEW100 34/16 Q1005
Loading
Personal Weather Stations






























Interactive Weather Map New forecast layout! Learn more

10-Day Weather Forecast

Advertisements
Track Severe Weather on mobile